EDT,Max TemperatureF,Mean TemperatureF,Min TemperatureF,Max Dew PointF,MeanDew PointF,Min DewpointF,Max Humidity, Mean Humidity, Min Humidity, Max Sea Level PressureIn, Mean Sea Level PressureIn, Min Sea Level PressureIn, Max VisibilityMiles, Mean VisibilityMiles, Min VisibilityMiles, Max Wind SpeedMPH, Mean Wind SpeedMPH, Max Gust SpeedMPH,PrecipitationIn, CloudCover, Events, WindDirDegrees
2013-3-1,53,47,41,39,33,30,87,60,44,29.96,29.92,29.87,10,10,10,12,6,,0.00,0,,307
2013-3-2,51,44,37,36,33,30,87,64,44,29.94,29.91,29.85,10,10,9,15,7,23,0.00,3,,283
2013-3-3,48,40,32,36,29,27,100,63,43,30.04,29.96,29.91,10,10,8,15,6,20,0.00,2,,306
2013-3-4,55,44,32,37,27,19,93,57,25,30.18,30.12,30.03,10,10,8,14,6,17,0.00,0,,310
2013-3-5,64,52,39,55,44,36,100,72,34,30.14,30.00,29.73,10,9,2,22,6,29,0.06,2,Rain,205
2013-3-6,60,51,42,54,31,23,88,52,35,30.09,29.87,29.71,10,10,10,25,15,36,0.00,1,,295
2013-3-7,60,48,37,41,33,30,100,62,34,30.23,30.17,30.08,10,10,6,13,6,16,0.00,0,,333
2013-3-8,60,48,35,37,30,23,100,59,25,30.29,30.23,30.17,10,9,5,16,5,22,0.00,0,,345
2013-3-9,60,46,33,43,36,32,100,73,36,30.33,30.28,30.25,10,9,5,9,2,,0.00,0,,77
2013-3-10,64,50,37,45,39,32,100,72,32,30.30,30.26,30.22,10,9,1,8,1,17,0.00,0,,91
2013-3-11,69,56,44,61,53,45,100,82,56,30.22,30.08,29.93,10,8,3,15,3,22,0.00,3,,165
2013-3-12,69,63,57,63,59,46,100,80,52,29.95,29.87,29.81,10,7,1,17,11,25,0.10,4,Rain,219
2013-3-13,66,56,46,46,33,25,72,45,21,30.13,30.05,29.95,10,10,5,15,8,25,0.00,0,,309
2013-3-14,55,45,35,32,25,19,87,47,25,30.32,30.22,30.10,10,10,9,15,7,23,0.00,0,,341
2013-3-15,64,50,35,46,37,27,100,66,27,30.24,30.15,30.06,10,9,5,14,3,18,0.00,0,,195
2013-3-16,77,65,53,52,47,43,72,55,29,30.06,29.97,29.88,10,10,9,20,10,26,0.00,0,,229
2013-3-17,75,67,59,55,52,48,77,62,44,30.05,30.00,29.96,10,10,10,17,9,26,0.00,0,,232
2013-3-18,66,62,57,63,57,52,100,88,64,30.10,30.01,29.87,10,6,1,14,4,20,0.05,3,Rain,128
2013-3-19,77,64,51,57,53,37,100,78,25,30.00,29.92,29.82,10,8,1,16,7,26,0.86,2,Rain,308
2013-3-20,60,50,39,39,32,18,93,49,21,30.11,29.99,29.84,10,10,10,13,3,17,0.00,0,,54
2013-3-21,59,48,37,39,26,14,100,48,17,29.96,29.85,29.80,10,10,7,18,6,24,0.00,0,,303
2013-3-22,51,43,35,41,28,19,81,54,37,30.11,30.05,29.96,10,10,10,9,3,,0.00,3,,53
2013-3-23,55,48,41,52,44,37,100,87,54,30.06,29.99,29.89,10,8,1,8,2,18,0.47,6,Rain,41
2013-3-24,66,56,46,64,53,46,100,96,88,29.89,29.63,29.45,10,5,0,15,6,24,3.71,8,Rain,15
2013-3-25,57,50,44,46,33,21,100,58,26,29.97,29.75,29.59,10,10,2,25,10,38,0.00,2,,293
2013-3-26,51,43,35,34,27,25,81,54,38,30.18,30.04,29.97,10,10,10,17,10,25,0.00,1,,300
2013-3-27,60,46,32,36,30,27,100,60,29,30.28,30.22,30.17,10,10,10,13,5,20,0.00,0,,316
2013-3-28,60,46,33,36,30,27,100,59,27,30.31,30.25,30.19,10,10,10,14,3,23,0.00,0,,340
2013-3-29,62,48,33,45,35,32,100,68,34,30.36,30.30,30.24,10,9,4,13,2,18,0.00,1,,149
2013-3-30,73,60,48,54,46,37,100,67,27,30.26,30.17,30.09,10,10,7,15,4,23,0.00,1,,206
2013-3-31,73,65,57,57,54,52,88,69,53,30.11,30.01,29.91,10,9,3,17,11,26,0.04,2,Rain,213